Fort Lauderdale, FL (33316)

1:46 PM EDT on September 03, 2015 (GMT -0400)
APRSWXNET | | Change Station
CLOSE
Current Station
Personal Weather Station
Location: Fort Lauderdale, FL
Elevation: 393 ft
Nearby Weather Stations

Elev 393 ft 26.10 °N, 80.11 °W | Updated 21 minutes ago

Mostly Cloudy
Mostly Cloudy
85 °F
Feels Like 97 °F
N
9
Wind Variable Wind from ESE
Gusts 12.0 mph

Today
High -- | Low -- °F
--% Chance of Precip.
Yesterday
High -- | Low -- °F
Precip. -- in
7:01 AM 7:38 PM
Waning Gibbous, 68% visible
Pressure 29.97 in
Visibility 10.0 miles
Clouds Scattered Clouds 3300 ft
Scattered Clouds 5000 ft
Mostly Cloudy 25000 ft
Heat Index 97 °F
Dew Point 78 °F
Humidity 81%
Rainfall in
Snow Depth Not available.
UV 8 out of 12
Pollen 4.20 out of 12
Air Quality Not available.
Flu Activity Not available.
METAR KFLL 031653Z 10007KT 10SM SCT033 SCT050 BKN250 31/25 A2997 RMK AO2 SLP149 T03060250
Pressure 29.97 in
Visibility 10.0 miles
Clouds Scattered Clouds 3300 ft
Scattered Clouds 5000 ft
Mostly Cloudy 25000 ft
Heat Index 97 °F
Dew Point 78 °F
Humidity 81%
Rainfall in
Snow Depth Not available.
UV 8 out of 12
Pollen 4.20 out of 12
Air Quality Not available.
Flu Activity Not available.
METAR KFLL 031653Z 10007KT 10SM SCT033 SCT050 BKN250 31/25 A2997 RMK AO2 SLP149 T03060250

10-Day Weather Forecast

×

Almanac

Astronomy

Sep. 03, 2015 Rise Set
Actual Time
Civil Twilight
Nautical Twilight
Astronomical Twilight
Moon
Length of Visible Light
Length of Day
Tomorrow will be .
, % of the Moon is Illuminated

Today's Extremes

State Highs State Lows

Community

WunderPhotos

Upload Photos

1,851,993 photos uploaded!

WunderBlogs® & News

Nearby

Air Quality

  Air Quality AQ Index Pollutant
Not available.

Snow Depth

Station Depth Elevation

Earthquake Activity

City Distance Mag. Time & Date
Minimum magnitude displayed is 2.5.

Coastal Water Temperatures

Place Temperature

Stations

Nearby Weather Stations

Station Location Temp. Windchill Dew Point Humidity Wind Precip. Elev Updated Type